Time;durP1;ratioP1;P1;durP2;ratioP2;P2;SDS_P1;SDS_P2;PMS_P1;PMS_P2;Temp;Humidity;BMP_temperature;BMP_pressure;BME280_temperature;BME280_humidity;BME280_pressure;Samples;Min_cycle;Max_cycle;Signal;HPM_P1;HPM_P2
2022/03/24 00:01:40;;;;;;;45.83;39.38;;;15.40;57.90;;;;;;5034105;28;20109;-63
2022/03/24 00:04:06;;;;;;;51.22;42.38;;;15.40;57.80;;;;;;5033729;28;20030;-64
2022/03/24 00:06:32;;;;;;;52.85;42.22;;;15.40;58.20;;;;;;5015586;28;20411;-64
2022/03/24 00:08:58;;;;;;;48.83;40.60;;;15.40;58.20;;;;;;5034072;28;20064;-64
2022/03/24 00:11:23;;;;;;;47.33;39.72;;;15.40;57.50;;;;;;5033827;28;20100;-61
2022/03/24 00:13:49;;;;;;;47.63;41.33;;;15.40;59.10;;;;;;5034150;28;20030;-62
2022/03/24 00:16:19;;;;;;;47.35;39.67;;;15.40;58.20;;;;;;5034018;28;20026;-63
2022/03/24 00:18:45;;;;;;;47.10;40.88;;;15.30;58.50;;;;;;5033611;28;20171;-64
2022/03/24 00:21:11;;;;;;;47.20;40.40;;;15.30;58.20;;;;;;5033634;28;20059;-63
2022/03/24 00:23:37;;;;;;;52.92;42.38;;;15.30;58.90;;;;;;5033865;28;20382;-64
2022/03/24 00:26:03;;;;;;;53.10;41.55;;;15.30;59.30;;;;;;5033844;28;20502;-64
2022/03/24 00:28:31;;;;;;;50.45;41.00;;;15.30;59.00;;;;;;5033441;28;20033;-62
2022/03/24 00:30:56;;;;;;;52.60;41.78;;;15.30;59.70;;;;;;5033706;28;20018;-64
2022/03/24 00:33:23;;;;;;;48.72;41.65;;;15.30;59.70;;;;;;5033190;28;20032;-64
2022/03/24 00:35:52;;;;;;;52.05;42.47;;;15.20;59.70;;;;;;5033710;28;20032;-61
2022/03/24 00:38:18;;;;;;;49.22;42.33;;;15.20;60.30;;;;;;5033456;28;20446;-63
2022/03/24 00:40:44;;;;;;;49.55;40.78;;;15.20;60.20;;;;;;5033558;28;20478;-63
2022/03/24 00:43:10;;;;;;;58.67;42.10;;;15.20;60.10;;;;;;5033371;28;20041;-63
2022/03/24 00:45:36;;;;;;;50.83;42.22;;;15.10;60.00;;;;;;5033468;28;20026;-64
2022/03/24 00:48:02;;;;;;;53.30;42.97;;;15.10;60.20;;;;;;5032894;28;20056;-63
2022/03/24 00:50:28;;;;;;;49.25;42.97;;;15.10;60.10;;;;;;5033593;28;20060;-60
2022/03/24 00:52:54;;;;;;;53.20;42.25;;;15.10;60.20;;;;;;5033338;28;20061;-61
2022/03/24 00:55:20;;;;;;;56.08;43.85;;;15.10;60.30;;;;;;5033300;28;20026;-60
2022/03/24 00:57:49;;;;;;;53.58;43.42;;;15.00;60.20;;;;;;5033439;28;20021;-59
2022/03/24 01:00:16;;;;;;;51.67;44.38;;;15.00;59.90;;;;;;5032814;28;20020;-60
2022/03/24 01:02:48;;;;;;;53.88;42.63;;;15.00;60.10;;;;;;5032915;28;20371;-59
2022/03/24 01:05:18;;;;;;;50.50;43.50;;;15.00;60.40;;;;;;5033175;28;20375;-59
2022/03/24 01:07:44;;;;;;;51.00;43.72;;;14.90;60.30;;;;;;5033113;28;20056;-61
2022/03/24 01:10:12;;;;;;;51.42;44.63;;;14.90;60.80;;;;;;5033151;28;20017;-58
2022/03/24 01:12:41;;;;;;;54.08;43.33;;;14.90;60.50;;;;;;5032926;28;20091;-59
2022/03/24 01:15:08;;;;;;;51.47;42.92;;;14.90;61.00;;;;;;5032752;28;20067;-60
2022/03/24 01:17:34;;;;;;;52.90;44.35;;;14.90;60.90;;;;;;5032949;28;20107;-59
2022/03/24 01:20:00;;;;;;;53.17;44.35;;;14.80;60.90;;;;;;5030377;28;20021;-60
2022/03/24 01:22:26;;;;;;;58.50;45.53;;;14.80;60.80;;;;;;5011886;28;20034;-60
2022/03/24 01:24:52;;;;;;;55.55;44.78;;;14.80;60.60;;;;;;5012653;28;20040;-60
2022/03/24 01:27:18;;;;;;;51.08;43.45;;;14.80;61.00;;;;;;5013170;28;20104;-59
2022/03/24 01:29:44;;;;;;;55.38;46.05;;;14.70;60.90;;;;;;5012842;28;20042;-60
2022/03/24 01:32:10;;;;;;;60.50;44.90;;;14.70;60.50;;;;;;5013230;28;20475;-59
2022/03/24 01:34:39;;;;;;;55.80;45.25;;;14.80;60.10;;;;;;5013131;28;20019;-59
2022/03/24 01:37:07;;;;;;;51.88;45.17;;;14.70;60.70;;;;;;5013120;28;20022;-60
2022/03/24 01:39:33;;;;;;;54.75;46.20;;;14.70;61.50;;;;;;5012950;28;20105;-59
2022/03/24 01:42:00;;;;;;;58.53;46.88;;;14.70;60.50;;;;;;5012926;28;20100;-60
2022/03/24 01:44:27;;;;;;;53.35;43.95;;;14.60;60.40;;;;;;5012938;28;20033;-59
2022/03/24 01:47:07;;;;;;;53.45;44.65;;;14.60;60.60;;;;;;5013140;28;20018;-59
2022/03/24 01:49:38;;;;;;;50.45;42.10;;;14.60;60.90;;;;;;5012969;28;20036;-60
2022/03/24 01:52:09;;;;;;;47.63;41.25;;;14.50;60.40;;;;;;5013213;28;20546;-59
2022/03/24 01:54:39;;;;;;;49.08;40.53;;;14.50;60.30;;;;;;5012990;28;20025;-59
2022/03/24 01:57:07;;;;;;;51.92;42.15;;;14.50;59.70;;;;;;4995371;28;20105;-59
2022/03/24 01:59:35;;;;;;;53.97;42.92;;;14.50;59.50;;;;;;5012798;28;20356;-60
2022/03/24 02:02:01;;;;;;;51.60;42.90;;;14.50;59.40;;;;;;5012745;28;20428;-59
2022/03/24 02:04:26;;;;;;;51.95;42.78;;;14.50;59.90;;;;;;5012813;28;20057;-63
2022/03/24 02:06:52;;;;;;;53.72;42.80;;;14.40;59.70;;;;;;5012819;28;20371;-60
2022/03/24 02:09:18;;;;;;;52.92;41.15;;;14.40;59.90;;;;;;5012659;28;20848;-60
2022/03/24 02:11:44;;;;;;;54.92;42.25;;;14.40;60.20;;;;;;5012643;28;20025;-59
2022/03/24 02:14:09;;;;;;;46.97;40.72;;;14.40;60.00;;;;;;5012636;28;20053;-59
2022/03/24 02:16:40;;;;;;;50.83;42.22;;;14.40;60.10;;;;;;5012892;28;20029;-59
2022/03/24 02:19:15;;;;;;;50.85;41.95;;;14.40;59.80;;;;;;5012629;28;20479;-60
2022/03/24 02:21:41;;;;;;;53.47;43.58;;;14.30;60.30;;;;;;5013021;28;20126;-60
2022/03/24 02:24:08;;;;;;;51.88;44.13;;;14.30;60.10;;;;;;5012579;28;20026;-60
2022/03/24 02:26:35;;;;;;;49.13;41.80;;;14.30;60.10;;;;;;5012713;28;20545;-59
2022/03/24 02:29:07;;;;;;;56.15;44.05;;;14.30;60.60;;;;;;5012168;28;20041;-61
2022/03/24 02:31:40;;;;;;;54.83;43.58;;;14.20;60.40;;;;;;5015613;28;20064;-61
2022/03/24 02:36:52;;;;;;;52.58;41.45;;;14.30;60.20;;;;;;5016331;28;20036;-59
2022/03/24 02:39:17;;;;;;;49.35;42.28;;;14.20;60.50;;;;;;5016131;28;20034;-59
2022/03/24 02:41:51;;;;;;;52.28;41.53;;;14.20;60.00;;;;;;5016007;28;20022;-62
2022/03/24 02:44:17;;;;;;;48.60;42.50;;;14.20;60.80;;;;;;4998127;28;20390;-59
2022/03/24 02:46:47;;;;;;;46.88;41.53;;;14.20;60.80;;;;;;5015807;28;20018;-59
2022/03/24 02:49:17;;;;;;;57.22;42.42;;;14.10;61.10;;;;;;5015839;28;20038;-59
2022/03/24 02:51:43;;;;;;;52.58;42.00;;;14.10;60.60;;;;;;5015588;28;20026;-61
2022/03/24 02:54:09;;;;;;;52.08;44.30;;;14.10;60.70;;;;;;5015863;28;20542;-60
2022/03/24 02:56:35;;;;;;;49.67;41.90;;;14.10;60.50;;;;;;5015347;28;20018;-59
2022/03/24 02:59:02;;;;;;;52.17;42.67;;;14.00;61.10;;;;;;5015679;28;20025;-59
2022/03/24 03:01:28;;;;;;;52.58;41.75;;;14.00;60.70;;;;;;5015476;28;20445;-59
2022/03/24 03:03:53;;;;;;;52.10;43.30;;;14.10;60.20;;;;;;5015673;28;20054;-60
2022/03/24 03:06:20;;;;;;;48.30;41.67;;;14.00;60.80;;;;;;5015401;28;20037;-60
2022/03/24 03:08:49;;;;;;;49.80;41.13;;;14.00;60.40;;;;;;5015383;28;20087;-59
2022/03/24 03:11:22;;;;;;;54.15;40.78;;;14.00;60.70;;;;;;5015064;28;20037;-60
2022/03/24 03:13:48;;;;;;;52.15;41.65;;;13.90;60.80;;;;;;5015388;28;20426;-60
2022/03/24 03:16:13;;;;;;;49.70;41.92;;;13.90;61.10;;;;;;5015276;28;20529;-61
2022/03/24 03:18:42;;;;;;;52.50;42.53;;;13.90;61.80;;;;;;5015064;28;20030;-59
2022/03/24 03:21:11;;;;;;;54.97;42.55;;;13.90;61.70;;;;;;5015186;28;20033;-60
2022/03/24 03:23:38;;;;;;;54.05;42.55;;;13.90;61.40;;;;;;5015166;28;20030;-60
2022/03/24 03:26:08;;;;;;;49.58;41.80;;;13.90;61.50;;;;;;5014763;28;20026;-59
2022/03/24 03:28:34;;;;;;;49.47;41.45;;;13.90;61.40;;;;;;5014770;28;20103;-61
2022/03/24 03:31:00;;;;;;;53.60;43.13;;;13.80;61.90;;;;;;5015045;28;20022;-60
2022/03/24 03:33:25;;;;;;;54.00;44.47;;;13.80;62.20;;;;;;5014867;28;20479;-58
2022/03/24 03:35:52;;;;;;;49.63;40.83;;;13.80;62.20;;;;;;5014799;28;20025;-59
2022/03/24 03:38:18;;;;;;;52.78;42.85;;;13.80;61.80;;;;;;5014900;28;20037;-59
2022/03/24 03:40:46;;;;;;;52.85;42.33;;;13.80;62.40;;;;;;5014200;28;20048;-59
2022/03/24 03:43:14;;;;;;;51.90;42.15;;;13.70;62.70;;;;;;5014028;28;20056;-59
2022/03/24 03:45:41;;;;;;;53.58;42.92;;;13.70;62.40;;;;;;5014806;28;20026;-60
2022/03/24 03:48:07;;;;;;;49.50;40.70;;;13.70;61.90;;;;;;5014703;28;20033;-59
2022/03/24 03:50:32;;;;;;;49.20;40.97;;;13.70;62.30;;;;;;5014856;28;20030;-59
2022/03/24 03:52:58;;;;;;;48.78;41.72;;;13.70;62.00;;;;;;5014445;28;20026;-61
2022/03/24 03:55:24;;;;;;;47.55;41.35;;;13.70;62.50;;;;;;5014334;28;20014;-59
2022/03/24 03:57:49;;;;;;;49.22;40.47;;;13.60;62.00;;;;;;5014673;28;20105;-60
2022/03/24 04:03:03;;;;;;;50.08;39.08;;;13.60;62.60;;;;;;5014694;28;20164;-60
2022/03/24 04:05:30;;;;;;;49.95;41.22;;;13.60;62.60;;;;;;5014360;28;20080;-59
2022/03/24 04:07:56;;;;;;;59.28;41.80;;;13.60;62.00;;;;;;5014024;28;20069;-62
2022/03/24 04:10:22;;;;;;;47.95;40.70;;;13.60;62.00;;;;;;5014390;28;20060;-60
2022/03/24 04:12:48;;;;;;;50.75;41.75;;;13.60;62.40;;;;;;5014044;28;20101;-59
2022/03/24 04:15:13;;;;;;;45.08;39.08;;;13.50;62.00;;;;;;5014176;28;20030;-59
2022/03/24 04:17:39;;;;;;;51.75;40.30;;;13.40;62.80;;;;;;5014032;28;20018;-61
2022/03/24 04:20:07;;;;;;;49.60;41.63;;;13.50;62.30;;;;;;4996495;28;20030;-58
2022/03/24 04:22:32;;;;;;;50.03;41.67;;;13.40;62.80;;;;;;5013969;28;20026;-59
2022/03/24 04:24:58;;;;;;;51.50;41.17;;;13.40;62.70;;;;;;5014048;28;20434;-59
2022/03/24 04:27:24;;;;;;;51.28;40.55;;;13.40;62.50;;;;;;5013709;28;20038;-59
2022/03/24 04:29:49;;;;;;;47.50;38.85;;;13.40;62.60;;;;;;5013971;28;20026;-61
2022/03/24 04:32:16;;;;;;;46.17;40.45;;;13.40;63.30;;;;;;5013739;28;20152;-60
2022/03/24 04:34:42;;;;;;;49.00;40.78;;;13.40;63.00;;;;;;5013860;28;20462;-63
2022/03/24 04:37:07;;;;;;;50.33;40.65;;;13.40;63.00;;;;;;5013673;28;20111;-61
2022/03/24 04:39:33;;;;;;;47.25;39.67;;;13.40;62.60;;;;;;5013537;28;20542;-60
2022/03/24 04:41:59;;;;;;;51.25;42.10;;;13.40;63.10;;;;;;5013988;28;20114;-59
2022/03/24 04:44:24;;;;;;;47.55;41.22;;;13.30;62.90;;;;;;5013554;28;20049;-59
2022/03/24 04:46:51;;;;;;;46.75;41.33;;;13.30;63.20;;;;;;5013452;28;20030;-63
2022/03/24 04:49:16;;;;;;;52.30;43.63;;;13.30;63.30;;;;;;5013660;28;20081;-58
2022/03/24 04:51:42;;;;;;;54.17;42.42;;;13.30;63.10;;;;;;5013963;28;20410;-63
2022/03/24 04:54:08;;;;;;;50.03;40.67;;;13.20;63.30;;;;;;5012928;28;20435;-59
2022/03/24 04:56:34;;;;;;;46.90;40.42;;;13.20;63.30;;;;;;5013589;28;20045;-59
2022/03/24 04:59:00;;;;;;;53.75;43.30;;;13.20;63.40;;;;;;5013400;28;20091;-59
2022/03/24 05:01:26;;;;;;;48.47;41.47;;;12.50;63.10;;;;;;5013389;28;20475;-59
2022/03/24 05:03:52;;;;;;;55.22;41.88;;;12.00;65.10;;;;;;5013399;28;20026;-59
2022/03/24 05:06:17;;;;;;;49.38;39.35;;;11.60;66.20;;;;;;5013495;28;20167;-59
2022/03/24 05:08:43;;;;;;;53.25;41.47;;;11.40;68.00;;;;;;5013153;28;20034;-59
2022/03/24 05:11:08;;;;;;;52.72;40.63;;;11.30;68.20;;;;;;5013386;28;20014;-59
2022/03/24 05:13:34;;;;;;;52.78;42.17;;;11.10;69.20;;;;;;5013153;28;20026;-61
2022/03/24 05:16:00;;;;;;;53.80;41.15;;;11.00;70.00;;;;;;5013068;28;20092;-59
2022/03/24 05:18:25;;;;;;;54.25;42.90;;;10.80;70.00;;;;;;5013182;28;20084;-59
2022/03/24 05:20:51;;;;;;;52.08;42.95;;;10.70;70.70;;;;;;5013163;28;20037;-59
2022/03/24 05:23:17;;;;;;;55.30;40.28;;;10.70;70.50;;;;;;5012860;28;20042;-61
2022/03/24 05:25:44;;;;;;;51.03;42.05;;;10.60;71.10;;;;;;5013136;28;20069;-59
2022/03/24 05:28:10;;;;;;;51.22;41.63;;;10.50;72.20;;;;;;4995383;28;20045;-59
2022/03/24 05:30:36;;;;;;;50.95;40.45;;;10.50;72.50;;;;;;5013142;28;20080;-59
2022/03/24 05:33:02;;;;;;;57.47;42.13;;;10.40;72.90;;;;;;5013118;28;20022;-60
2022/03/24 05:35:29;;;;;;;53.70;42.20;;;10.40;72.60;;;;;;5012965;28;20018;-59
2022/03/24 05:37:55;;;;;;;54.72;44.58;;;10.30;72.50;;;;;;5013057;28;20097;-59
2022/03/24 05:40:21;;;;;;;52.05;42.03;;;10.30;72.90;;;;;;5012987;28;20531;-59
2022/03/24 05:42:47;;;;;;;53.17;42.25;;;10.30;73.10;;;;;;5012882;28;20038;-59
2022/03/24 05:45:12;;;;;;;56.25;42.97;;;10.20;72.10;;;;;;5013064;28;20053;-59
2022/03/24 05:47:38;;;;;;;55.28;41.50;;;10.20;72.90;;;;;;5012964;28;20464;-62
2022/03/24 05:50:04;;;;;;;57.08;42.80;;;10.20;72.90;;;;;;5012791;28;20041;-59
2022/03/24 05:52:31;;;;;;;63.40;42.20;;;10.20;73.90;;;;;;5012547;28;20034;-60
2022/03/24 05:54:57;;;;;;;54.45;41.40;;;10.10;72.70;;;;;;5012768;28;20030;-58
2022/03/24 05:57:23;;;;;;;52.03;41.67;;;10.10;73.30;;;;;;5013075;28;20026;-60
2022/03/24 05:59:49;;;;;;;52.47;42.42;;;10.10;74.70;;;;;;5012839;28;20038;-59
2022/03/24 06:02:15;;;;;;;55.22;44.15;;;10.10;74.60;;;;;;5041325;28;20062;-62
2022/03/24 06:04:42;;;;;;;54.97;45.20;;;10.00;74.40;;;;;;5052209;28;20100;-59
2022/03/24 06:07:09;;;;;;;62.97;44.17;;;10.10;75.20;;;;;;5037421;28;20025;-59
2022/03/24 06:09:35;;;;;;;59.38;44.75;;;10.10;74.90;;;;;;5056202;28;20029;-59
2022/03/24 06:12:01;;;;;;;53.83;44.47;;;10.10;75.20;;;;;;5055913;28;20074;-60
2022/03/24 06:14:27;;;;;;;60.47;45.85;;;10.00;76.20;;;;;;5056104;28;20033;-61
2022/03/24 06:16:53;;;;;;;54.75;45.20;;;10.00;76.60;;;;;;5038165;28;20021;-61
2022/03/24 06:19:19;;;;;;;59.05;45.40;;;10.00;76.90;;;;;;5055654;28;20486;-59
2022/03/24 06:21:44;;;;;;;59.33;44.08;;;10.00;76.50;;;;;;5056410;28;20055;-60
2022/03/24 06:24:10;;;;;;;61.15;45.67;;;10.00;77.40;;;;;;5055908;28;20041;-59
2022/03/24 06:26:37;;;;;;;59.97;46.03;;;10.00;77.10;;;;;;5055763;28;20039;-59
2022/03/24 06:29:03;;;;;;;58.05;46.08;;;10.10;77.80;;;;;;5055647;28;20036;-60
2022/03/24 06:31:30;;;;;;;63.70;48.35;;;10.10;78.00;;;;;;5055886;28;20032;-60
2022/03/24 06:33:56;;;;;;;60.30;47.45;;;10.10;78.00;;;;;;5055638;28;20024;-61
2022/03/24 06:36:22;;;;;;;65.22;48.83;;;10.20;77.80;;;;;;5048739;28;20025;-59
2022/03/24 06:38:48;;;;;;;66.32;50.13;;;10.10;80.20;;;;;;5031205;28;20026;-61
2022/03/24 06:41:16;;;;;;;68.85;51.67;;;10.00;78.50;;;;;;5013998;28;20029;-61
2022/03/24 06:43:42;;;;;;;62.55;49.25;;;10.00;80.10;;;;;;5024969;28;20037;-64
2022/03/24 06:46:08;;;;;;;61.65;43.45;;;10.00;79.30;;;;;;5027021;28;20434;-67
2022/03/24 06:48:34;;;;;;;61.05;47.63;;;10.70;81.20;;;;;;5022567;28;20039;-55
2022/03/24 06:51:00;;;;;;;49.33;39.97;;;11.10;78.10;;;;;;5023813;28;20022;-57
2022/03/24 06:53:26;;;;;;;57.55;42.85;;;11.40;76.30;;;;;;5013622;28;20032;-63
2022/03/24 06:55:51;;;;;;;56.55;44.08;;;11.60;75.00;;;;;;5027873;28;20105;-59
2022/03/24 06:58:17;;;;;;;63.70;50.42;;;11.80;74.40;;;;;;5028881;28;20018;-56
2022/03/24 07:00:42;;;;;;;59.83;44.90;;;12.00;74.20;;;;;;5013287;28;20048;-54
2022/03/24 07:03:08;;;;;;;55.08;42.90;;;12.10;73.40;;;;;;5028691;28;20029;-52
2022/03/24 07:05:34;;;;;;;59.63;43.88;;;12.20;73.10;;;;;;5035004;28;20096;-58
2022/03/24 07:07:59;;;;;;;59.25;46.45;;;12.30;73.10;;;;;;5033975;28;20039;-61
2022/03/24 07:10:25;;;;;;;66.32;48.53;;;12.30;73.20;;;;;;5034205;28;20033;-63
2022/03/24 07:12:50;;;;;;;59.97;45.80;;;12.40;73.40;;;;;;5022778;28;20021;-61
2022/03/24 07:15:16;;;;;;;57.30;45.58;;;12.50;72.90;;;;;;5026528;28;20104;-58
2022/03/24 07:17:42;;;;;;;54.25;44.30;;;12.50;72.20;;;;;;5029292;28;20025;-58
2022/03/24 07:20:08;;;;;;;60.70;48.55;;;12.60;72.40;;;;;;5024919;28;20025;-64
2022/03/24 07:22:35;;;;;;;66.13;48.80;;;12.70;73.00;;;;;;5030168;28;20045;-60
2022/03/24 07:25:02;;;;;;;62.30;47.85;;;12.80;73.00;;;;;;5030677;28;20064;-60
2022/03/24 07:27:29;;;;;;;60.67;47.38;;;12.80;72.70;;;;;;5032939;28;20025;-59
2022/03/24 07:29:54;;;;;;;65.60;48.47;;;12.90;72.30;;;;;;5032230;28;20445;-59
2022/03/24 07:32:20;;;;;;;60.15;44.53;;;12.90;72.60;;;;;;5033633;28;20462;-58
2022/03/24 07:34:46;;;;;;;60.47;46.70;;;13.00;72.00;;;;;;5028141;28;20083;-61
2022/03/24 07:37:12;;;;;;;60.65;46.80;;;13.00;72.10;;;;;;5030899;28;20018;-57
2022/03/24 07:39:38;;;;;;;62.15;48.10;;;13.10;71.80;;;;;;5034150;28;20475;-56
2022/03/24 07:42:04;;;;;;;59.50;47.30;;;13.10;72.00;;;;;;5029201;28;20029;-58
2022/03/24 07:44:30;;;;;;;64.47;48.53;;;13.20;71.80;;;;;;5024433;28;20030;-62
2022/03/24 07:46:55;;;;;;;67.50;48.58;;;13.30;71.80;;;;;;5031013;28;20025;-59
2022/03/24 07:49:21;;;;;;;62.80;47.33;;;13.30;71.40;;;;;;5019236;28;20047;-60
2022/03/24 07:51:46;;;;;;;60.50;44.72;;;13.40;71.40;;;;;;5029617;28;20017;-55
2022/03/24 07:54:12;;;;;;;59.05;43.97;;;13.40;71.70;;;;;;5019612;28;20365;-58
2022/03/24 07:56:38;;;;;;;53.53;43.08;;;13.50;71.30;;;;;;5028512;28;20044;-66
2022/03/24 07:59:05;;;;;;;57.20;41.00;;;13.50;70.50;;;;;;5031935;28;20017;-61
2022/03/24 08:01:33;;;;;;;61.85;40.30;;;13.60;70.80;;;;;;5030055;28;20032;-61
2022/03/24 08:04:01;;;;;;;62.38;40.67;;;13.60;69.80;;;;;;5029056;28;20049;-60
2022/03/24 08:06:28;;;;;;;55.22;40.83;;;13.70;69.60;;;;;;5027801;28;20026;-64
2022/03/24 08:08:54;;;;;;;66.57;41.47;;;13.70;68.90;;;;;;5031856;28;20034;-59
2022/03/24 08:11:21;;;;;;;57.75;40.05;;;13.80;68.20;;;;;;5032332;28;20020;-64
2022/03/24 08:13:50;;;;;;;60.28;41.28;;;13.80;68.30;;;;;;5031605;28;20024;-58
2022/03/24 08:16:16;;;;;;;57.35;39.38;;;13.80;68.00;;;;;;5030923;28;20451;-58
2022/03/24 08:18:41;;;;;;;58.03;39.42;;;13.90;67.30;;;;;;5014174;28;20518;-64
2022/03/24 08:21:08;;;;;;;50.00;37.47;;;13.90;66.40;;;;;;5014078;28;20014;-57
2022/03/24 08:23:33;;;;;;;57.05;39.15;;;14.00;66.70;;;;;;5015116;28;20080;-60
2022/03/24 08:25:59;;;;;;;61.97;39.00;;;14.00;67.00;;;;;;5024027;28;20057;-64
2022/03/24 08:28:24;;;;;;;59.30;40.05;;;14.10;66.60;;;;;;5028956;28;20041;-62
2022/03/24 08:30:50;;;;;;;59.47;41.92;;;14.10;65.30;;;;;;5025075;28;20017;-62
2022/03/24 08:33:16;;;;;;;58.95;41.08;;;14.20;64.30;;;;;;5032416;28;20037;-64
2022/03/24 08:35:42;;;;;;;58.47;40.53;;;14.20;64.30;;;;;;5033416;28;20052;-62
2022/03/24 08:38:09;;;;;;;54.95;38.80;;;14.20;63.40;;;;;;5022844;28;20022;-67
2022/03/24 08:40:35;;;;;;;53.10;38.58;;;14.20;64.40;;;;;;5028329;28;20025;-60
2022/03/24 08:43:00;;;;;;;55.58;37.15;;;14.30;65.10;;;;;;5031775;28;20021;-60
2022/03/24 08:45:26;;;;;;;49.42;36.55;;;14.30;65.10;;;;;;5032849;28;20504;-58
2022/03/24 08:47:53;;;;;;;48.10;34.03;;;14.30;64.70;;;;;;5029361;28;20046;-60
2022/03/24 08:50:19;;;;;;;46.97;34.25;;;14.40;65.10;;;;;;5032880;28;20025;-62
2022/03/24 08:52:45;;;;;;;34.92;25.90;;;14.40;65.50;;;;;;5024228;28;20060;-56
2022/03/24 08:55:13;;;;;;;47.55;33.67;;;14.50;67.30;;;;;;5016566;28;20391;-63
2022/03/24 08:57:40;;;;;;;43.28;29.92;;;14.50;65.50;;;;;;5013202;28;20097;-61
2022/03/24 09:00:15;;;;;;;48.95;32.28;;;14.60;65.80;;;;;;5013079;28;20022;-58
2022/03/24 09:02:42;;;;;;;43.53;27.38;;;14.60;66.20;;;;;;5020829;28;20033;-57
2022/03/24 09:05:08;;;;;;;47.50;27.83;;;14.60;64.70;;;;;;5032594;28;20087;-57
2022/03/24 09:07:35;;;;;;;43.90;28.85;;;14.70;63.80;;;;;;5033054;28;20029;-66
2022/03/24 09:10:01;;;;;;;41.15;26.35;;;14.70;62.10;;;;;;5030136;28;20030;-63
2022/03/24 09:12:28;;;;;;;37.72;27.02;;;14.70;63.70;;;;;;5030068;28;20025;-65
2022/03/24 09:14:54;;;;;;;29.10;20.90;;;14.80;64.70;;;;;;5031298;28;20033;-66
2022/03/24 09:17:20;;;;;;;44.58;32.00;;;14.80;66.20;;;;;;5029256;28;20044;-64
2022/03/24 09:19:45;;;;;;;40.38;29.10;;;14.90;63.10;;;;;;5031849;28;20033;-61
2022/03/24 09:22:11;;;;;;;41.08;27.42;;;14.90;63.60;;;;;;5031978;28;20022;-60
2022/03/24 09:24:37;;;;;;;39.63;28.05;;;14.90;63.80;;;;;;5031900;28;20359;-54
2022/03/24 09:27:05;;;;;;;43.50;28.63;;;14.90;63.50;;;;;;5028964;28;20468;-58
2022/03/24 09:29:31;;;;;;;40.25;27.83;;;15.00;63.70;;;;;;5032391;28;20041;-59
2022/03/24 09:31:57;;;;;;;34.00;24.85;;;15.00;63.10;;;;;;5032611;28;20026;-58
2022/03/24 09:34:22;;;;;;;42.10;27.75;;;15.00;63.70;;;;;;5032680;28;20027;-61
2022/03/24 09:36:48;;;;;;;41.03;28.92;;;15.00;63.40;;;;;;5032049;28;20033;-61
2022/03/24 09:39:15;;;;;;;45.95;28.35;;;15.10;63.20;;;;;;5033870;28;20100;-58
2022/03/24 09:41:45;;;;;;;34.10;25.95;;;15.10;62.50;;;;;;5035519;28;20061;-61
2022/03/24 09:44:10;;;;;;;40.78;27.63;;;15.10;63.00;;;;;;5036095;28;20113;-58
2022/03/24 09:46:36;;;;;;;47.67;29.83;;;15.20;61.70;;;;;;5037087;28;20513;-59
2022/03/24 09:49:02;;;;;;;38.25;27.25;;;15.20;61.10;;;;;;5036433;28;20041;-68
2022/03/24 09:51:28;;;;;;;35.67;25.05;;;15.20;60.70;;;;;;5037111;28;20028;-68
2022/03/24 09:53:54;;;;;;;38.78;27.13;;;15.30;61.50;;;;;;5036080;28;20076;-66
2022/03/24 09:56:20;;;;;;;40.15;27.20;;;15.30;60.40;;;;;;5036458;28;20029;-68
2022/03/24 09:58:48;;;;;;;45.75;27.33;;;15.30;60.90;;;;;;5036005;28;20040;-67
2022/03/24 10:01:15;;;;;;;37.55;26.13;;;15.30;59.80;;;;;;5036678;28;20040;-58
2022/03/24 10:04:02;;;;;;;37.45;25.77;;;15.30;60.90;;;;;;5036091;28;20482;-60
2022/03/24 10:06:28;;;;;;;33.67;22.95;;;15.40;61.00;;;;;;5036822;28;20026;-65
2022/03/24 10:08:53;;;;;;;31.98;22.10;;;15.40;60.40;;;;;;5036013;28;20144;-57
2022/03/24 10:11:23;;;;;;;36.20;24.60;;;15.40;59.70;;;;;;5035569;28;20032;-59
2022/03/24 10:13:53;;;;;;;36.53;23.50;;;15.40;58.30;;;;;;5036420;28;20466;-60
2022/03/24 10:16:34;;;;;;;36.05;25.42;;;15.50;57.90;;;;;;5035257;28;20483;-61
2022/03/24 10:19:11;;;;;;;31.17;23.98;;;15.50;59.00;;;;;;5035295;28;20059;-60
2022/03/24 10:21:50;;;;;;;32.63;24.00;;;15.50;59.10;;;;;;5035965;28;20120;-64
2022/03/24 10:24:18;;;;;;;34.58;23.05;;;15.60;59.50;;;;;;5036119;28;20025;-71
2022/03/24 10:26:43;;;;;;;32.20;24.60;;;15.60;57.90;;;;;;5034945;28;20033;-64
2022/03/24 10:29:16;;;;;;;34.03;23.75;;;15.60;57.90;;;;;;5034861;28;20041;-62
2022/03/24 10:31:43;;;;;;;30.25;22.95;;;15.60;58.60;;;;;;5023515;28;20030;-52
2022/03/24 10:34:11;;;;;;;32.53;23.17;;;15.60;58.90;;;;;;5027569;28;20048;-71
2022/03/24 10:36:39;;;;;;;32.55;22.10;;;15.70;59.20;;;;;;5028974;28;20068;-68
2022/03/24 10:39:05;;;;;;;32.97;20.30;;;15.70;57.70;;;;;;5035516;28;20030;-68
2022/03/24 10:41:32;;;;;;;33.92;20.13;;;15.70;57.80;;;;;;5035615;28;20021;-68
2022/03/24 10:44:19;;;;;;;32.28;20.58;;;15.70;57.70;;;;;;5034537;28;20471;-61
2022/03/24 10:46:45;;;;;;;27.05;17.98;;;15.80;57.20;;;;;;5032182;28;20030;-59
2022/03/24 10:49:16;;;;;;;33.67;19.50;;;15.80;57.40;;;;;;5029840;28;20079;-60
2022/03/24 10:51:44;;;;;;;27.03;20.07;;;15.90;57.20;;;;;;5031029;28;20021;-60
2022/03/24 10:54:15;;;;;;;27.13;19.98;;;15.90;54.50;;;;;;5032382;28;20029;-62
2022/03/24 10:57:12;;;;;;;30.00;18.37;;;15.90;54.90;;;;;;5034118;28;20029;-60
2022/03/24 10:59:42;;;;;;;26.48;17.77;;;16.00;56.30;;;;;;5034976;28;20021;-57
2022/03/24 11:02:09;;;;;;;30.80;18.90;;;15.90;56.20;;;;;;5015108;28;20034;-69
2022/03/24 11:04:35;;;;;;;28.50;18.92;;;15.90;56.50;;;;;;5018252;28;20494;-69
2022/03/24 11:07:00;;;;;;;29.25;18.42;;;16.00;55.70;;;;;;5035230;28;20360;-69
2022/03/24 11:09:28;;;;;;;26.83;17.35;;;16.00;54.10;;;;;;5034936;28;20068;-67
2022/03/24 11:12:26;;;;;;;27.77;18.10;;;16.00;55.90;;;;;;5017192;28;20490;-66
2022/03/24 11:14:56;;;;;;;30.70;18.63;;;16.10;56.20;;;;;;5015318;28;20494;-68
2022/03/24 11:17:24;;;;;;;25.42;18.20;;;16.00;54.70;;;;;;5031337;28;20029;-68
2022/03/24 11:20:13;;;;;;;24.70;17.15;;;16.10;51.60;;;;;;5035329;28;20021;-68
2022/03/24 11:22:50;;;;;;;26.58;16.73;;;16.10;54.30;;;;;;4986731;28;20034;-69
2022/03/24 11:25:17;;;;;;;30.48;17.23;;;16.10;53.70;;;;;;5033936;28;20470;-68
2022/03/24 11:27:43;;;;;;;27.17;17.58;;;16.10;54.50;;;;;;5034882;28;20097;-67
2022/03/24 11:30:10;;;;;;;27.85;18.45;;;16.20;55.30;;;;;;5034920;28;20112;-68
2022/03/24 11:32:39;;;;;;;21.70;17.05;;;16.20;53.30;;;;;;5034504;28;20021;-69
2022/03/24 11:35:06;;;;;;;30.58;15.85;;;16.20;52.90;;;;;;5034176;28;20026;-67
2022/03/24 11:37:32;;;;;;;20.95;14.98;;;16.20;54.90;;;;;;5034700;28;20048;-69
2022/03/24 11:40:06;;;;;;;22.23;15.35;;;16.30;55.20;;;;;;5034095;28;20109;-68
2022/03/24 11:42:36;;;;;;;21.25;15.45;;;16.30;55.80;;;;;;5014845;28;20040;-68
2022/03/24 11:45:09;;;;;;;23.88;17.30;;;16.30;55.20;;;;;;5023904;28;20029;-68
2022/03/24 11:48:00;;;;;;;25.38;16.88;;;16.40;54.60;;;;;;5033329;28;20022;-68
2022/03/24 11:50:45;;;;;;;25.75;17.27;;;16.30;53.00;;;;;;5033176;28;20080;-65
2022/03/24 11:53:13;;;;;;;29.25;17.08;;;16.40;52.40;;;;;;5034326;28;20387;-67
2022/03/24 11:56:01;;;;;;;22.02;15.73;;;16.30;51.60;;;;;;5034398;28;20078;-65
2022/03/24 11:58:36;;;;;;;28.40;16.95;;;16.40;52.60;;;;;;5034034;28;20037;-68
2022/03/24 12:01:20;;;;;;;31.48;18.13;;;16.40;51.20;;;;;;5033857;28;20052;-68
2022/03/24 12:03:48;;;;;;;25.77;18.48;;;16.40;51.20;;;;;;5032998;28;20026;-68
2022/03/24 12:06:18;;;;;;;25.08;17.08;;;16.50;51.60;;;;;;5034379;28;20093;-67
2022/03/24 12:08:45;;;;;;;26.75;17.30;;;16.50;51.70;;;;;;5033980;28;20033;-68
2022/03/24 12:11:33;;;;;;;20.38;14.38;;;16.50;53.50;;;;;;5033535;28;20052;-68
2022/03/24 12:13:59;;;;;;;17.10;13.02;;;16.50;55.20;;;;;;5032830;28;20532;-68
2022/03/24 12:16:27;;;;;;;24.20;16.98;;;16.50;55.20;;;;;;5032845;28;20083;-68
2022/03/24 12:18:53;;;;;;;26.10;17.50;;;16.60;53.30;;;;;;5031118;28;20022;-69
2022/03/24 12:21:27;;;;;;;24.98;17.60;;;16.60;50.70;;;;;;5025113;28;20459;-68
2022/03/24 12:24:05;;;;;;;26.67;17.88;;;16.60;52.10;;;;;;5090136;28;20439;-72
2022/03/24 12:26:35;;;;;;;32.95;20.05;;;16.60;51.80;;;;;;5090935;28;20153;-72
2022/03/24 12:29:10;;;;;;;24.30;15.85;;;16.70;50.30;;;;;;5088974;28;20096;-72
2022/03/24 12:31:56;;;;;;;21.45;13.93;;;16.70;52.80;;;;;;5070279;28;20025;-72
2022/03/24 12:34:47;;;;;;;21.63;14.82;;;16.70;54.10;;;;;;5086051;28;20736;-72
2022/03/24 12:37:30;;;;;;;26.70;17.70;;;16.70;52.40;;;;;;5087848;28;20512;-72